Time;durP1;ratioP1;P1;durP2;ratioP2;P2;SDS_P1;SDS_P2;PMS_P1;PMS_P2;Temp;Humidity;BMP_temperature;BMP_pressure;BME280_temperature;BME280_humidity;BME280_pressure;Samples;Min_cycle;Max_cycle;Signal;HPM_P1;HPM_P2
2022/09/01 00:02:26;;;;;;;1.10;0.80;;;17.50;79.80;;;;;;4923383;29;20126;-71
2022/09/01 00:04:57;;;;;;;2.28;0.88;;;17.50;78.60;;;;;;4924058;29;20047;-71
2022/09/01 00:07:25;;;;;;;2.28;0.80;;;17.40;79.00;;;;;;4921446;29;20043;-70
2022/09/01 00:09:51;;;;;;;0.63;0.47;;;17.50;79.60;;;;;;4918601;29;20076;-71
2022/09/01 00:12:17;;;;;;;0.75;0.50;;;17.50;79.40;;;;;;4919117;29;20075;-71
2022/09/01 00:14:43;;;;;;;1.98;0.60;;;17.60;79.20;;;;;;4917572;29;20028;-71
2022/09/01 00:17:10;;;;;;;1.23;0.55;;;17.60;79.00;;;;;;4923960;29;20044;-70
2022/09/01 00:19:38;;;;;;;0.80;0.60;;;17.60;79.50;;;;;;4924641;28;20144;-71
2022/09/01 00:22:04;;;;;;;0.93;0.70;;;17.60;79.70;;;;;;4921786;29;20114;-71
2022/09/01 00:24:30;;;;;;;0.57;0.50;;;17.60;79.80;;;;;;4922887;29;20031;-71
2022/09/01 00:26:57;;;;;;;2.65;0.60;;;17.60;79.80;;;;;;4921149;29;20042;-71
2022/09/01 00:29:23;;;;;;;1.15;0.70;;;17.70;80.00;;;;;;4924445;29;20031;-70
2022/09/01 00:31:50;;;;;;;1.75;0.50;;;17.60;78.90;;;;;;4920088;29;20051;-71
2022/09/01 00:34:17;;;;;;;0.80;0.70;;;17.60;78.30;;;;;;4924088;29;20090;-71
2022/09/01 00:36:43;;;;;;;3.95;0.85;;;17.60;77.90;;;;;;4923083;29;20043;-71
2022/09/01 00:39:09;;;;;;;2.17;0.50;;;17.60;77.80;;;;;;4922422;29;20719;-71
2022/09/01 00:41:37;;;;;;;3.25;0.60;;;17.50;77.90;;;;;;4922377;28;20106;-71
2022/09/01 00:44:07;;;;;;;0.75;0.43;;;17.50;77.80;;;;;;4921922;29;20062;-70
2022/09/01 00:46:35;;;;;;;2.45;0.70;;;17.50;78.20;;;;;;4920182;29;20035;-71
2022/09/01 00:49:29;;;;;;;3.20;0.70;;;17.50;78.20;;;;;;4916063;29;20040;-70
2022/09/01 00:52:01;;;;;;;1.02;0.50;;;17.50;79.00;;;;;;4918490;29;20043;-71
2022/09/01 00:54:32;;;;;;;0.82;0.52;;;17.50;79.20;;;;;;4925263;29;20027;-71
2022/09/01 00:56:59;;;;;;;1.15;0.70;;;17.50;79.10;;;;;;4923046;29;20147;-70
2022/09/01 00:59:26;;;;;;;1.30;0.70;;;17.60;78.60;;;;;;4920672;29;20032;-71
2022/09/01 01:01:52;;;;;;;1.75;0.47;;;17.50;78.20;;;;;;4920660;29;20549;-71
2022/09/01 01:04:19;;;;;;;0.47;0.47;;;17.50;78.00;;;;;;4922013;29;20044;-70
2022/09/01 01:06:49;;;;;;;1.38;0.63;;;17.50;77.70;;;;;;4918160;29;20046;-71
2022/09/01 01:09:20;;;;;;;1.88;0.60;;;17.50;78.00;;;;;;4922529;29;20145;-71
2022/09/01 01:11:47;;;;;;;0.85;0.40;;;17.50;77.20;;;;;;4923690;29;20084;-70
2022/09/01 01:14:16;;;;;;;1.50;0.60;;;17.50;77.00;;;;;;4923503;29;20036;-71
2022/09/01 01:16:45;;;;;;;1.00;0.65;;;17.50;78.40;;;;;;4922572;29;20028;-71
2022/09/01 01:25:11;;;;;;;2.60;0.73;;;17.40;78.80;;;;;;4931580;29;20060;-71
2022/09/01 01:27:41;;;;;;;0.68;0.40;;;17.50;78.40;;;;;;4919883;29;20094;-71
2022/09/01 01:30:09;;;;;;;0.45;0.45;;;17.40;77.10;;;;;;4929081;29;20413;-71
2022/09/01 01:32:42;;;;;;;1.33;0.43;;;17.40;77.50;;;;;;4924035;29;20040;-70
2022/09/01 01:35:13;;;;;;;0.63;0.50;;;17.40;77.90;;;;;;4920186;29;20048;-71
2022/09/01 01:37:44;;;;;;;3.58;0.80;;;17.40;78.90;;;;;;4935915;28;20134;-71
2022/09/01 01:40:14;;;;;;;2.75;0.70;;;17.30;79.80;;;;;;4921470;29;20072;-71
2022/09/01 01:42:50;;;;;;;1.10;0.70;;;17.30;79.90;;;;;;4916896;29;20035;-71
2022/09/01 01:45:19;;;;;;;1.83;1.02;;;17.30;80.40;;;;;;4925886;29;20056;-71
2022/09/01 01:47:50;;;;;;;1.02;0.60;;;17.30;79.60;;;;;;4915060;29;20111;-70
2022/09/01 01:50:17;;;;;;;1.52;0.70;;;17.30;79.90;;;;;;4920574;29;20027;-70
2022/09/01 01:52:44;;;;;;;0.50;0.50;;;17.20;79.50;;;;;;4922966;29;20028;-70
2022/09/01 01:55:11;;;;;;;0.65;0.50;;;17.20;78.80;;;;;;4920538;29;20148;-70
2022/09/01 01:57:47;;;;;;;0.63;0.60;;;17.20;79.50;;;;;;4923501;29;20024;-70
2022/09/01 02:00:18;;;;;;;0.80;0.57;;;17.20;79.20;;;;;;4922740;29;20123;-70
2022/09/01 02:02:52;;;;;;;1.35;0.65;;;17.10;77.80;;;;;;4920144;29;20031;-70
2022/09/01 02:05:24;;;;;;;2.08;0.82;;;17.10;78.90;;;;;;4922998;29;20126;-70
2022/09/01 02:07:58;;;;;;;1.90;0.90;;;17.10;80.30;;;;;;4916030;29;20036;-70
2022/09/01 02:10:29;;;;;;;1.70;0.55;;;17.10;81.00;;;;;;4924195;29;20123;-70
2022/09/01 02:13:06;;;;;;;0.68;0.52;;;17.00;80.70;;;;;;4922916;29;20562;-70
2022/09/01 02:15:38;;;;;;;1.40;0.68;;;17.00;81.00;;;;;;4919270;29;20024;-70
2022/09/01 02:18:05;;;;;;;0.60;0.60;;;17.00;80.90;;;;;;4917222;29;20078;-70
2022/09/01 02:20:31;;;;;;;0.90;0.60;;;17.00;81.00;;;;;;4936317;28;20459;-70
2022/09/01 02:23:08;;;;;;;0.98;0.40;;;16.90;81.30;;;;;;4920379;29;20027;-70
2022/09/01 02:25:34;;;;;;;;;;;16.90;81.80;;;;;;4923386;29;20108;-70
2022/09/01 02:28:02;;;;;;;1.23;0.70;;;16.80;82.10;;;;;;4916784;29;19922;-70
2022/09/01 02:30:31;;;;;;;1.67;0.57;;;16.80;82.60;;;;;;4922216;29;20055;-70
2022/09/01 02:32:58;;;;;;;0.57;0.50;;;16.80;82.40;;;;;;4923825;29;20100;-70
2022/09/01 02:35:35;;;;;;;2.78;0.70;;;16.80;82.60;;;;;;4929352;29;20040;-70
2022/09/01 02:38:04;;;;;;;0.95;0.80;;;16.70;81.50;;;;;;4926906;29;20032;-70
2022/09/01 02:40:31;;;;;;;1.05;0.68;;;16.70;81.40;;;;;;4940482;28;20122;-70
2022/09/01 02:42:59;;;;;;;1.05;0.60;;;16.70;82.00;;;;;;4921646;29;20505;-70
2022/09/01 02:45:28;;;;;;;1.80;0.70;;;16.70;82.00;;;;;;4923574;29;20063;-70
2022/09/01 02:47:56;;;;;;;0.93;0.70;;;16.70;82.10;;;;;;4925847;29;20119;-70
2022/09/01 02:50:23;;;;;;;1.00;0.70;;;16.70;82.70;;;;;;4929200;29;20054;-70
2022/09/01 02:52:51;;;;;;;0.88;0.50;;;16.70;82.10;;;;;;4928190;29;20023;-70
2022/09/01 02:55:20;;;;;;;2.92;0.70;;;16.70;82.20;;;;;;4924550;29;20422;-70
2022/09/01 02:57:49;;;;;;;3.80;0.80;;;16.70;82.50;;;;;;4928214;29;20031;-70
2022/09/01 03:00:21;;;;;;;3.45;0.70;;;16.70;82.80;;;;;;4926702;29;20501;-70
2022/09/01 03:02:50;;;;;;;2.08;0.70;;;16.70;82.70;;;;;;4928126;29;20062;-70
2022/09/01 03:05:18;;;;;;;1.67;0.60;;;16.60;82.80;;;;;;4928815;29;20024;-70
2022/09/01 03:07:43;;;;;;;3.38;0.82;;;16.60;81.80;;;;;;4929112;29;20643;-70
2022/09/01 03:10:10;;;;;;;1.00;0.77;;;16.60;82.70;;;;;;4928084;29;20122;-70
2022/09/01 03:12:36;;;;;;;6.82;0.70;;;16.60;82.00;;;;;;4927930;29;20480;-70
2022/09/01 03:15:01;;;;;;;1.92;0.40;;;16.60;82.60;;;;;;4922966;29;20035;-70
2022/09/01 03:17:29;;;;;;;1.42;0.80;;;16.60;81.30;;;;;;4923826;29;20074;-70
2022/09/01 03:19:56;;;;;;;3.15;0.75;;;16.60;82.60;;;;;;4921677;29;20166;-70
2022/09/01 03:22:22;;;;;;;1.48;0.68;;;16.60;82.60;;;;;;4923255;29;20490;-70
2022/09/01 03:24:47;;;;;;;0.93;0.70;;;16.60;83.30;;;;;;4925134;29;20038;-70
2022/09/01 03:27:13;;;;;;;1.60;0.70;;;16.60;83.30;;;;;;4927810;29;20032;-70
2022/09/01 03:29:39;;;;;;;0.63;0.63;;;16.50;83.60;;;;;;4926829;29;20028;-70
2022/09/01 03:32:06;;;;;;;2.33;0.90;;;16.50;84.00;;;;;;4924300;29;20144;-70
2022/09/01 03:34:35;;;;;;;1.35;0.90;;;16.50;84.80;;;;;;4924881;29;20779;-70
2022/09/01 03:37:08;;;;;;;0.70;0.68;;;16.40;84.20;;;;;;4920425;29;20031;-70
2022/09/01 03:39:34;;;;;;;1.70;0.80;;;16.40;84.40;;;;;;4919772;29;20028;-70
2022/09/01 03:42:00;;;;;;;0.80;0.55;;;16.40;84.80;;;;;;4925783;29;20039;-70
2022/09/01 03:44:26;;;;;;;1.85;0.77;;;16.30;85.10;;;;;;4923000;29;20039;-71
2022/09/01 03:46:52;;;;;;;2.17;0.98;;;16.30;85.50;;;;;;4926046;29;20103;-70
2022/09/01 03:49:23;;;;;;;1.17;0.50;;;16.20;85.70;;;;;;4932953;29;20111;-70
2022/09/01 03:51:53;;;;;;;1.83;0.80;;;16.10;85.80;;;;;;4922567;29;20407;-70
2022/09/01 03:54:24;;;;;;;1.33;0.90;;;16.00;85.90;;;;;;4925362;29;20035;-70
2022/09/01 03:56:50;;;;;;;2.22;0.80;;;15.90;86.40;;;;;;4920524;29;20069;-70
2022/09/01 03:59:18;;;;;;;1.88;0.90;;;15.90;86.60;;;;;;4920078;29;20146;-70
2022/09/01 04:01:45;;;;;;;0.88;0.80;;;15.80;86.70;;;;;;4923469;29;20054;-70
2022/09/01 04:04:12;;;;;;;2.47;0.70;;;15.70;87.00;;;;;;4924979;29;20043;-71
2022/09/01 04:06:39;;;;;;;2.70;1.23;;;15.70;87.50;;;;;;4923339;29;20038;-70
2022/09/01 04:09:06;;;;;;;2.05;0.90;;;15.50;87.80;;;;;;4920341;29;20074;-70
2022/09/01 04:11:32;;;;;;;1.25;0.70;;;15.40;88.30;;;;;;4923136;29;20024;-70
2022/09/01 04:13:58;;;;;;;2.63;0.98;;;15.40;88.80;;;;;;4921764;29;20038;-70
2022/09/01 04:19:18;;;;;;;1.13;0.88;;;15.20;89.50;;;;;;4917441;29;20051;-70
2022/09/01 04:21:49;;;;;;;1.63;0.98;;;15.10;89.70;;;;;;4921272;29;20047;-70
2022/09/01 04:24:17;;;;;;;1.55;0.88;;;15.10;90.10;;;;;;4924049;29;20099;-70
2022/09/01 04:26:47;;;;;;;1.10;1.00;;;15.00;90.30;;;;;;4925384;29;20404;-70
2022/09/01 04:29:17;;;;;;;2.53;0.90;;;14.90;90.20;;;;;;4920370;29;20071;-71
2022/09/01 04:31:44;;;;;;;2.65;0.95;;;14.90;90.40;;;;;;4936097;29;20118;-70
2022/09/01 04:34:12;;;;;;;1.85;0.90;;;14.80;90.50;;;;;;4918974;29;20362;-70
2022/09/01 04:36:43;;;;;;;2.13;0.90;;;14.70;90.60;;;;;;4919265;29;20028;-71
2022/09/01 04:39:12;;;;;;;1.33;0.70;;;14.70;90.80;;;;;;4915406;29;20048;-71
2022/09/01 04:41:41;;;;;;;1.67;0.80;;;14.60;90.80;;;;;;4927269;29;20035;-70
2022/09/01 04:44:08;;;;;;;2.40;1.05;;;14.60;91.00;;;;;;4923214;29;20036;-70
2022/09/01 04:46:45;;;;;;;0.80;0.70;;;14.60;91.10;;;;;;4938212;28;20739;-70
2022/09/01 04:49:18;;;;;;;0.90;0.65;;;14.50;91.20;;;;;;4921201;29;20043;-70
2022/09/01 04:51:46;;;;;;;1.00;0.90;;;14.50;91.30;;;;;;4935404;29;20062;-71
2022/09/01 04:54:15;;;;;;;1.30;0.98;;;14.50;91.50;;;;;;4924108;29;20036;-71
2022/09/01 04:56:49;;;;;;;2.72;1.02;;;14.50;91.50;;;;;;4917656;29;20038;-70
2022/09/01 04:59:19;;;;;;;1.00;0.80;;;14.40;91.60;;;;;;4921027;29;20043;-71
2022/09/01 05:01:49;;;;;;;1.38;0.82;;;14.40;91.70;;;;;;4927351;29;20515;-70
2022/09/01 05:04:23;;;;;;;4.07;0.60;;;14.40;91.80;;;;;;4923956;29;20072;-71
2022/09/01 05:06:59;;;;;;;2.17;0.98;;;14.40;92.00;;;;;;4921078;29;20118;-71
2022/09/01 05:09:34;;;;;;;2.85;0.60;;;14.30;92.10;;;;;;4922997;28;20031;-71
2022/09/01 05:12:15;;;;;;;1.33;0.90;;;14.30;92.30;;;;;;4918869;29;20047;-71
2022/09/01 05:14:47;;;;;;;2.97;0.80;;;14.30;92.40;;;;;;4917158;29;20031;-71
2022/09/01 05:17:16;;;;;;;3.65;1.00;;;14.30;92.50;;;;;;4924710;29;20031;-71
2022/09/01 05:19:46;;;;;;;0.80;0.65;;;14.30;92.80;;;;;;4923745;29;20050;-71
2022/09/01 05:22:14;;;;;;;1.38;0.82;;;14.30;92.70;;;;;;4922051;29;20039;-71
2022/09/01 05:24:44;;;;;;;2.92;1.00;;;14.30;92.90;;;;;;4939626;28;20043;-71
2022/09/01 05:27:11;;;;;;;0.75;0.68;;;14.30;93.00;;;;;;4922417;29;20044;-71
2022/09/01 05:29:38;;;;;;;1.75;0.90;;;14.30;93.00;;;;;;4919186;29;20031;-70
2022/09/01 05:32:08;;;;;;;1.00;0.90;;;14.40;93.20;;;;;;4932029;29;20038;-71
2022/09/01 05:34:37;;;;;;;2.40;0.93;;;14.40;93.40;;;;;;4922065;29;20032;-70
2022/09/01 05:37:07;;;;;;;1.88;0.80;;;14.40;93.50;;;;;;4924166;29;20122;-71
2022/09/01 05:39:35;;;;;;;2.35;0.93;;;14.40;93.50;;;;;;4936462;28;20532;-70
2022/09/01 05:42:03;;;;;;;1.13;0.65;;;14.50;93.60;;;;;;4920615;29;20058;-71
2022/09/01 05:44:29;;;;;;;2.22;1.00;;;14.50;93.60;;;;;;4920990;28;20711;-71
2022/09/01 05:46:58;;;;;;;1.80;0.90;;;14.60;93.70;;;;;;4917996;29;20037;-71
2022/09/01 05:49:27;;;;;;;1.83;0.85;;;14.60;93.80;;;;;;4917455;29;20175;-70
2022/09/01 05:51:57;;;;;;;2.67;0.90;;;14.60;93.80;;;;;;4914968;29;20122;-71
2022/09/01 05:54:27;;;;;;;2.83;0.93;;;14.70;93.90;;;;;;4924302;29;20488;-70
2022/09/01 05:56:57;;;;;;;2.45;0.75;;;14.70;93.90;;;;;;4939388;28;20028;-70
2022/09/01 05:59:26;;;;;;;1.88;0.65;;;14.80;93.90;;;;;;4934886;29;20123;-71
2022/09/01 06:02:20;;;;;;;1.17;0.82;;;14.80;93.80;;;;;;4920730;29;20043;-71
2022/09/01 06:04:47;;;;;;;1.25;0.90;;;15.00;93.90;;;;;;4921232;29;20042;-71
2022/09/01 06:07:27;;;;;;;2.72;1.00;;;15.20;93.90;;;;;;4924146;29;20069;-71
2022/09/01 06:09:54;;;;;;;2.40;1.15;;;15.40;93.10;;;;;;4923938;29;20035;-71
2022/09/01 06:12:23;;;;;;;1.33;0.80;;;15.60;92.10;;;;;;4924857;29;20531;-71
2022/09/01 06:14:52;;;;;;;1.23;0.80;;;15.90;91.80;;;;;;4922297;29;20040;-70
2022/09/01 06:17:29;;;;;;;1.05;0.80;;;16.20;90.40;;;;;;4922211;29;20040;-70
2022/09/01 06:20:00;;;;;;;1.70;0.70;;;16.40;90.00;;;;;;4934476;29;20562;-70
2022/09/01 06:22:27;;;;;;;1.15;0.80;;;16.80;87.40;;;;;;4920245;29;20444;-71
2022/09/01 06:24:54;;;;;;;1.52;0.88;;;17.10;86.50;;;;;;4917943;29;20122;-71
2022/09/01 06:27:20;;;;;;;1.58;0.52;;;17.40;85.20;;;;;;4923064;29;20853;-71
2022/09/01 06:29:53;;;;;;;2.47;0.98;;;17.40;83.70;;;;;;4921583;29;20027;-71
2022/09/01 06:32:19;;;;;;;2.40;0.70;;;17.50;83.80;;;;;;4923269;29;20276;-71
2022/09/01 06:34:49;;;;;;;1.60;0.68;;;17.50;83.20;;;;;;4938486;28;20031;-71
2022/09/01 06:37:15;;;;;;;2.40;0.60;;;17.40;82.70;;;;;;4920549;29;20034;-70
2022/09/01 06:39:44;;;;;;;0.80;0.60;;;17.40;83.60;;;;;;4920256;29;20059;-70
2022/09/01 06:42:12;;;;;;;1.92;0.90;;;17.40;84.10;;;;;;4917608;29;20067;-71
2022/09/01 06:44:51;;;;;;;2.28;0.93;;;17.30;84.40;;;;;;4917055;29;20415;-71
2022/09/01 06:47:18;;;;;;;1.73;1.08;;;17.30;84.30;;;;;;4932281;29;20032;-71
2022/09/01 06:49:44;;;;;;;3.35;1.08;;;17.30;84.40;;;;;;4914343;29;20142;-71
2022/09/01 06:52:16;;;;;;;2.08;0.80;;;17.30;85.10;;;;;;4922212;29;20031;-70
2022/09/01 06:54:43;;;;;;;1.30;0.90;;;17.20;82.30;;;;;;4921920;29;20209;-71
2022/09/01 06:57:09;;;;;;;0.68;0.68;;;17.10;83.50;;;;;;4922116;29;20480;-70
2022/09/01 06:59:35;;;;;;;2.63;1.00;;;17.10;83.20;;;;;;4921804;29;20150;-71
2022/09/01 07:02:02;;;;;;;2.00;0.73;;;17.20;83.90;;;;;;4917486;28;20040;-70
2022/09/01 07:04:48;;;;;;;1.75;0.90;;;17.20;82.80;;;;;;4916313;29;20142;-70
2022/09/01 07:07:15;;;;;;;2.03;0.75;;;17.30;83.70;;;;;;4921289;29;20037;-70
2022/09/01 07:09:59;;;;;;;1.85;0.70;;;17.40;83.10;;;;;;4912960;29;20050;-70
2022/09/01 07:12:35;;;;;;;2.03;0.80;;;17.50;81.50;;;;;;4917718;29;20135;-71
2022/09/01 07:15:02;;;;;;;4.03;0.88;;;17.70;81.50;;;;;;4919606;29;20032;-71
2022/09/01 07:17:29;;;;;;;0.93;0.70;;;18.00;80.60;;;;;;4919731;29;20092;-71
2022/09/01 07:19:56;;;;;;;0.90;0.88;;;18.50;77.90;;;;;;4920716;29;20492;-71
2022/09/01 07:22:24;;;;;;;1.45;0.70;;;18.90;77.70;;;;;;4921031;29;20043;-71
2022/09/01 07:24:56;;;;;;;0.80;0.70;;;19.30;74.90;;;;;;4918899;29;20895;-71
2022/09/01 07:27:55;;;;;;;1.75;0.73;;;19.70;74.40;;;;;;4914560;29;20079;-71
2022/09/01 07:30:22;;;;;;;1.83;0.60;;;19.70;69.40;;;;;;4928703;29;20031;-71
2022/09/01 07:32:49;;;;;;;1.80;0.70;;;19.70;71.60;;;;;;4921522;29;20056;-70
2022/09/01 07:35:21;;;;;;;1.75;0.70;;;19.60;71.00;;;;;;4924442;29;20107;-71
2022/09/01 07:37:47;;;;;;;1.48;0.57;;;19.50;70.60;;;;;;4938564;29;20032;-71
2022/09/01 07:40:17;;;;;;;1.13;0.60;;;19.50;72.80;;;;;;4919229;29;20028;-71
2022/09/01 07:42:46;;;;;;;0.90;0.70;;;19.70;71.90;;;;;;4920529;29;20036;-71
2022/09/01 07:45:32;;;;;;;2.75;0.70;;;19.70;70.80;;;;;;4920554;29;20074;-71
2022/09/01 07:48:05;;;;;;;3.78;0.43;;;19.70;71.00;;;;;;4917970;29;20039;-71
2022/09/01 07:50:36;;;;;;;2.92;0.60;;;19.70;70.00;;;;;;4938708;28;20195;-71
2022/09/01 07:53:03;;;;;;;1.08;0.50;;;19.60;72.00;;;;;;4922306;29;20091;-71
2022/09/01 07:55:30;;;;;;;0.65;0.47;;;19.60;70.60;;;;;;4922529;28;20019;-71
2022/09/01 07:57:59;;;;;;;1.00;0.68;;;19.60;70.20;;;;;;4919605;29;20031;-71
2022/09/01 08:00:26;;;;;;;1.20;0.60;;;19.50;69.00;;;;;;4920665;29;20024;-71
2022/09/01 08:02:58;;;;;;;0.95;0.50;;;19.60;69.40;;;;;;4918965;29;20036;-71
2022/09/01 08:05:25;;;;;;;0.60;0.50;;;19.90;69.40;;;;;;4918223;29;20142;-71
2022/09/01 08:07:52;;;;;;;4.57;0.70;;;20.20;66.10;;;;;;4925468;29;20063;-71
2022/09/01 08:10:22;;;;;;;1.20;0.50;;;20.30;64.50;;;;;;4925282;29;20031;-72
2022/09/01 08:12:48;;;;;;;1.98;0.40;;;20.40;64.50;;;;;;4920676;29;20028;-71
2022/09/01 08:15:16;;;;;;;1.52;0.52;;;20.30;65.10;;;;;;4922242;29;20067;-71
2022/09/01 08:17:43;;;;;;;0.95;0.60;;;20.30;62.90;;;;;;4935515;29;20023;-71
2022/09/01 08:20:11;;;;;;;3.50;0.60;;;20.30;63.80;;;;;;4920957;29;20031;-71
2022/09/01 08:22:57;;;;;;;;;;;20.20;65.30;;;;;;4925691;29;20068;-70
2022/09/01 08:25:28;;;;;;;0.75;0.45;;;20.20;66.30;;;;;;4919551;29;19921;-71
2022/09/01 08:27:54;;;;;;;0.93;0.40;;;20.20;66.80;;;;;;4920842;29;20112;-71
2022/09/01 08:30:20;;;;;;;0.60;0.60;;;20.20;67.20;;;;;;4922551;29;20468;-71
2022/09/01 08:32:46;;;;;;;2.55;0.57;;;20.30;67.00;;;;;;4917720;29;20147;-71
2022/09/01 08:35:12;;;;;;;3.47;0.68;;;20.30;65.30;;;;;;4922798;29;20118;-71
2022/09/01 08:37:39;;;;;;;1.95;0.85;;;20.20;66.60;;;;;;4916838;29;20130;-70
2022/09/01 08:40:06;;;;;;;0.68;0.55;;;20.20;66.40;;;;;;4917016;29;20028;-69
2022/09/01 08:42:48;;;;;;;0.85;0.40;;;20.20;63.40;;;;;;4917198;29;20146;-70
2022/09/01 08:45:23;;;;;;;0.60;0.50;;;20.20;64.30;;;;;;4920278;29;20396;-70
2022/09/01 08:48:05;;;;;;;0.98;0.50;;;20.20;63.70;;;;;;4925392;29;20131;-70
2022/09/01 08:50:33;;;;;;;1.17;0.50;;;20.30;65.00;;;;;;4935354;29;20036;-70
2022/09/01 08:53:33;;;;;;;1.23;0.47;;;20.40;63.70;;;;;;4921224;29;20060;-69
2022/09/01 08:55:59;;;;;;;0.75;0.57;;;20.40;63.90;;;;;;4918888;29;20028;-70
2022/09/01 08:58:29;;;;;;;0.95;0.50;;;20.50;63.30;;;;;;4923726;29;20038;-70
2022/09/01 09:01:37;;;;;;;1.33;0.38;;;20.70;61.90;;;;;;4919087;29;20159;-69
2022/09/01 09:04:23;;;;;;;0.55;0.47;;;20.90;62.20;;;;;;4922073;29;20174;-70
2022/09/01 09:07:09;;;;;;;1.58;0.45;;;21.20;61.20;;;;;;4923512;29;20126;-70
2022/09/01 09:09:49;;;;;;;0.52;0.52;;;21.40;61.60;;;;;;4924077;29;20484;-70
2022/09/01 09:12:34;;;;;;;1.35;0.45;;;21.40;60.10;;;;;;4921778;29;20070;-70
2022/09/01 09:15:24;;;;;;;0.68;0.40;;;21.30;58.00;;;;;;4919671;29;20039;-70
2022/09/01 09:17:58;;;;;;;2.78;0.88;;;21.30;58.80;;;;;;4920125;29;20471;-70
2022/09/01 09:20:26;;;;;;;0.70;0.40;;;21.20;57.60;;;;;;4919358;29;20062;-70
2022/09/01 09:22:53;;;;;;;0.45;0.43;;;21.20;55.20;;;;;;4918782;29;20588;-70
2022/09/01 09:25:19;;;;;;;1.52;0.60;;;21.30;55.90;;;;;;4924087;29;20044;-70
2022/09/01 09:27:49;;;;;;;1.30;0.60;;;21.20;55.50;;;;;;4924373;28;20838;-70
2022/09/01 09:30:27;;;;;;;0.95;0.40;;;21.20;57.60;;;;;;4921288;29;20113;-70
2022/09/01 09:33:02;;;;;;;1.13;0.50;;;21.30;58.70;;;;;;4920263;29;20044;-70
2022/09/01 09:35:40;;;;;;;0.40;0.40;;;21.40;58.20;;;;;;4923267;29;20347;-70
2022/09/01 09:38:17;;;;;;;0.50;0.40;;;21.50;56.70;;;;;;4929270;29;20107;-70
2022/09/01 09:40:59;;;;;;;0.38;0.30;;;21.60;57.10;;;;;;4920451;29;20928;-70
2022/09/01 09:43:28;;;;;;;2.17;0.50;;;21.70;57.40;;;;;;4922627;29;20028;-70
2022/09/01 09:46:34;;;;;;;0.75;0.38;;;21.90;55.60;;;;;;4923950;29;20035;-70
2022/09/01 09:49:14;;;;;;;0.35;0.35;;;22.00;56.00;;;;;;4920775;29;20082;-70
2022/09/01 09:51:43;;;;;;;1.52;0.43;;;22.40;56.90;;;;;;4919470;29;20032;-70
2022/09/01 09:54:18;;;;;;;2.60;0.60;;;22.70;55.80;;;;;;4917966;29;20032;-70
2022/09/01 09:56:45;;;;;;;1.33;0.65;;;22.90;54.00;;;;;;4917333;29;20074;-70
2022/09/01 09:59:26;;;;;;;0.75;0.57;;;22.80;53.50;;;;;;4916292;29;20044;-70
2022/09/01 10:02:13;;;;;;;2.40;0.43;;;22.60;54.10;;;;;;4925023;29;20571;-70
2022/09/01 10:04:39;;;;;;;2.15;0.40;;;22.60;55.30;;;;;;4924187;28;20077;-70
2022/09/01 10:07:27;;;;;;;1.33;0.50;;;22.50;52.80;;;;;;4920737;29;20118;-70
2022/09/01 10:09:55;;;;;;;0.65;0.43;;;22.40;49.60;;;;;;4921371;29;20035;-70
2022/09/01 10:12:23;;;;;;;1.25;0.30;;;22.40;49.80;;;;;;4919612;29;20043;-70
2022/09/01 10:14:58;;;;;;;1.23;0.50;;;22.40;49.30;;;;;;4917293;29;20032;-70
2022/09/01 10:17:38;;;;;;;0.50;0.50;;;22.40;51.60;;;;;;4917683;29;20118;-70
2022/09/01 10:20:08;;;;;;;0.95;0.40;;;22.50;51.70;;;;;;4935787;29;20794;-70
2022/09/01 10:22:36;;;;;;;1.73;0.50;;;22.50;51.60;;;;;;4923689;29;20028;-70
2022/09/01 10:25:05;;;;;;;0.93;0.63;;;22.50;51.20;;;;;;4921059;29;20035;-70
2022/09/01 10:27:35;;;;;;;0.70;0.40;;;22.50;50.10;;;;;;4920675;29;20063;-70
2022/09/01 10:30:09;;;;;;;1.10;0.30;;;22.40;50.60;;;;;;4920885;29;20036;-70
2022/09/01 10:32:51;;;;;;;0.80;0.50;;;22.40;51.60;;;;;;4919166;29;20465;-70
2022/09/01 10:35:33;;;;;;;0.98;0.50;;;22.20;49.80;;;;;;4921768;29;20028;-70
2022/09/01 10:38:09;;;;;;;1.63;0.43;;;22.10;51.20;;;;;;4921251;29;20196;-70
2022/09/01 10:40:39;;;;;;;1.05;0.55;;;22.20;54.50;;;;;;4924289;28;20035;-70
2022/09/01 10:43:26;;;;;;;0.47;0.35;;;22.20;53.80;;;;;;4921509;29;20039;-70
2022/09/01 10:45:52;;;;;;;1.88;0.40;;;22.30;51.90;;;;;;4919044;29;20062;-70
2022/09/01 10:48:22;;;;;;;0.77;0.38;;;22.30;51.10;;;;;;4919332;29;20476;-70
2022/09/01 10:50:50;;;;;;;1.38;0.60;;;22.40;53.00;;;;;;4917981;29;20047;-70
2022/09/01 10:53:35;;;;;;;0.43;0.43;;;22.50;52.10;;;;;;4916984;29;20502;-70
2022/09/01 10:56:09;;;;;;;1.65;0.50;;;22.60;50.20;;;;;;4917578;29;20122;-70
2022/09/01 10:59:04;;;;;;;3.35;0.38;;;22.60;51.10;;;;;;4928162;29;20113;-70
2022/09/01 11:01:39;;;;;;;0.52;0.50;;;22.70;52.60;;;;;;4926563;29;20125;-70
2022/09/01 11:04:06;;;;;;;1.83;0.40;;;22.80;50.80;;;;;;4926997;29;20040;-70
2022/09/01 11:06:55;;;;;;;1.05;0.40;;;22.70;49.80;;;;;;4924267;28;20039;-71
2022/09/01 11:09:36;;;;;;;0.47;0.30;;;22.50;51.00;;;;;;4922355;29;20035;-70
2022/09/01 11:12:30;;;;;;;0.82;0.50;;;22.40;52.20;;;;;;4918576;29;20104;-71
2022/09/01 11:15:02;;;;;;;0.98;0.60;;;22.30;51.90;;;;;;4920954;29;20032;-70
2022/09/01 11:17:31;;;;;;;1.25;0.50;;;22.20;51.70;;;;;;4927078;29;20031;-70
2022/09/01 11:20:21;;;;;;;3.67;0.50;;;22.30;51.60;;;;;;4924946;29;20834;-70
2022/09/01 11:23:07;;;;;;;1.65;0.30;;;22.30;51.20;;;;;;4922644;29;20046;-71
2022/09/01 11:25:36;;;;;;;0.98;0.40;;;22.60;53.50;;;;;;4921581;29;20040;-70
2022/09/01 11:28:14;;;;;;;0.40;0.30;;;22.70;50.40;;;;;;4919914;29;20520;-70
2022/09/01 11:30:52;;;;;;;0.30;0.30;;;22.80;51.50;;;;;;4920992;29;20880;-70
2022/09/01 11:33:39;;;;;;;1.20;0.43;;;22.70;50.30;;;;;;4918881;29;20036;-71
2022/09/01 11:36:24;;;;;;;2.22;0.45;;;22.80;49.60;;;;;;4924186;29;20035;-70
2022/09/01 11:39:07;;;;;;;0.88;0.40;;;22.80;51.90;;;;;;4925522;29;20822;-70
2022/09/01 11:41:57;;;;;;;0.50;0.30;;;22.70;51.00;;;;;;4919061;29;20082;-70
2022/09/01 11:44:26;;;;;;;0.63;0.38;;;22.70;50.40;;;;;;4922452;29;20045;-71
2022/09/01 11:46:58;;;;;;;1.25;0.50;;;22.70;50.80;;;;;;4920753;29;20032;-70
2022/09/01 11:49:34;;;;;;;3.13;1.48;;;22.80;50.30;;;;;;4920137;29;20035;-71
2022/09/01 11:52:02;;;;;;;0.30;0.30;;;23.00;50.90;;;;;;4916720;29;21002;-71
2022/09/01 11:54:35;;;;;;;0.70;0.30;;;23.30;50.90;;;;;;4926178;28;20039;-70
2022/09/01 11:57:27;;;;;;;0.32;0.30;;;23.50;49.40;;;;;;4924287;29;20036;-70
2022/09/01 11:59:54;;;;;;;0.85;0.30;;;23.50;46.80;;;;;;4921932;29;20050;-71
2022/09/01 12:02:26;;;;;;;2.97;0.30;;;23.50;47.40;;;;;;4922422;29;20045;-71
2022/09/01 12:04:54;;;;;;;2.03;0.47;;;23.50;48.20;;;;;;4922210;29;20054;-71
2022/09/01 12:07:46;;;;;;;0.68;0.22;;;23.50;47.80;;;;;;4919459;29;20042;-71
2022/09/01 12:10:31;;;;;;;0.70;0.30;;;23.50;47.90;;;;;;4918086;29;20075;-70
2022/09/01 12:13:23;;;;;;;1.88;0.50;;;23.50;49.00;;;;;;4923536;29;20030;-70
2022/09/01 12:15:53;;;;;;;3.70;0.45;;;23.40;47.60;;;;;;4920606;29;20035;-71
2022/09/01 12:18:29;;;;;;;0.68;0.43;;;23.30;49.30;;;;;;4923380;29;20083;-71
2022/09/01 12:20:58;;;;;;;1.77;0.70;;;23.30;49.20;;;;;;4922173;29;20047;-71
2022/09/01 12:23:36;;;;;;;0.50;0.38;;;23.30;47.10;;;;;;4922471;29;20031;-71
2022/09/01 12:26:14;;;;;;;1.05;0.25;;;23.20;48.60;;;;;;4918621;29;20176;-71
2022/09/01 12:28:41;;;;;;;1.27;0.20;;;23.10;47.20;;;;;;4919926;29;20098;-71
2022/09/01 12:31:12;;;;;;;0.65;0.30;;;23.00;47.20;;;;;;4921042;29;20027;-71
2022/09/01 12:33:40;;;;;;;0.93;0.30;;;23.00;49.10;;;;;;4924661;29;20592;-71
2022/09/01 12:36:35;;;;;;;0.30;0.30;;;22.90;49.60;;;;;;4923139;29;20086;-71
2022/09/01 12:39:16;;;;;;;3.25;0.38;;;23.00;49.20;;;;;;4921430;29;20047;-71
2022/09/01 12:41:45;;;;;;;1.02;0.40;;;22.90;49.00;;;;;;4922383;29;20028;-70
2022/09/01 12:44:29;;;;;;;0.20;0.20;;;22.80;47.30;;;;;;4920095;29;20068;-70
2022/09/01 12:46:57;;;;;;;0.80;0.40;;;22.80;47.80;;;;;;4918477;29;20468;-71
2022/09/01 12:49:33;;;;;;;0.80;0.45;;;22.70;48.90;;;;;;4919115;29;20384;-71
2022/09/01 12:52:30;;;;;;;0.68;0.45;;;22.70;49.50;;;;;;4922628;29;20035;-71
2022/09/01 12:54:58;;;;;;;0.43;0.20;;;22.90;50.10;;;;;;4924520;29;20047;-71
2022/09/01 12:57:32;;;;;;;2.15;0.40;;;23.00;47.30;;;;;;4924221;29;20019;-71
2022/09/01 13:00:11;;;;;;;2.53;0.43;;;23.10;50.60;;;;;;4920226;29;20039;-71
2022/09/01 13:02:43;;;;;;;1.60;0.40;;;23.00;49.00;;;;;;4918808;29;20090;-71
2022/09/01 13:05:21;;;;;;;0.38;0.30;;;22.70;50.80;;;;;;4916628;29;20067;-70
2022/09/01 13:07:47;;;;;;;0.50;0.28;;;22.60;51.70;;;;;;4916460;29;20495;-71
2022/09/01 13:10:13;;;;;;;0.45;0.40;;;22.50;53.40;;;;;;4922856;29;20093;-71
2022/09/01 13:12:43;;;;;;;0.52;0.30;;;22.40;52.70;;;;;;4923736;29;20276;-71
2022/09/01 13:15:11;;;;;;;0.80;0.35;;;22.40;52.20;;;;;;4921368;29;20031;-71
2022/09/01 13:17:37;;;;;;;1.13;0.32;;;22.40;52.40;;;;;;4921895;28;20449;-71
2022/09/01 13:20:04;;;;;;;0.22;0.20;;;22.30;53.00;;;;;;4918076;29;20072;-71
2022/09/01 13:22:30;;;;;;;1.58;0.50;;;22.30;52.00;;;;;;4934528;28;20039;-71